Gregg, Texas
Current Conditions -  °F | °C
As of 2:35 AM on Saturday 20 Dec 2014 (Local Time) from KEDC Reporting Station
Overcast Overcast  
Wind Chill: 43°   Ceiling: 1500
Heat Index: 48°   Visibility: 10mi
Dew Point: 45°   Wind: 12mph
Humidity: 87%   Direction: 350°N
Pressure: 30.18"   Gusts: NA
Location:  30.352°N, 97.5205°W
Report Text: KEDC 200835Z AUTO 35010KT 10SM OVC015 09/07 A3018 RMK AO2
Loading
Personal Weather Stations






























Interactive Weather Map New forecast layout! Learn more

10-Day Weather Forecast

Advertisements
Track Severe Weather on mobile